VOCC/COK METAR and TAF weather

Enter ICAO airport designator
Station Type Date Time Source
VOCC METAR 2017/12/28 01:00 UTC NOAA

VOCC 280100Z 01005KT 3000 BR FEW020 FEW090 24/22 Q1011 NOSIG


Station Type Date Time Source
VOCC Decoded METAR 2017/12/28 01:00 UTC NOAA

Cochin / Willingdon, India (VOCC) 09-57N 076-16E 3M
Dec 27, 2017 - 08:00 PM EST / 2017.12.28 0100 UTC
Wind: from the N (010 degrees) at 6 MPH (5 KT):0
Visibility: 1 mile(s):0
Sky conditions: mostly clear
Weather: mist
Temperature: 75 F (24 C)
Dew Point: 71 F (22 C)
Relative Humidity: 88%
Pressure (altimeter): 29.85 in. Hg (1011 hPa)
ob: VOCC 280100Z 01005KT 3000 BR FEW020 FEW090 24/22 Q1011 NOSIG
cycle: 1

Station Type Date Time Source
VOCC TAF 2016/10/31 12:00 UTC NOAA

TAF VOCC 311100Z 3112/0118 33005KT 5000 RA BR SCT012 FEW025CB BKN080
BECMG 3117/3118 00000KT 3000 RA BR SCT008 SCT012 BKN080
TEMPO 3122/0102 1500 TSRA RA SCT004 SCT012 FEW025CB BKN080
BECMG 0104/0105 03005KT 5000 RA BR SCT012 SCT020 FEW025CB
TEMPO 0108/0112 29010KT 2000 TSRA RA SCT006 SCT012 FEW025CB OVC080
BECMG 0114/0115 00000KT 3000 RA BR


Example: see airport list